createdAt,value
2022-08-20T00:02:26.134Z,14.63
2022-08-20T00:04:59.715Z,13.90
2022-08-20T00:07:33.143Z,13.80
2022-08-20T00:10:08.767Z,16.15
2022-08-20T00:12:46.679Z,13.57
2022-08-20T00:15:26.142Z,16.73
2022-08-20T00:18:00.254Z,18.02
2022-08-20T00:20:37.054Z,17.63
2022-08-20T00:23:12.813Z,16.13
2022-08-20T00:25:46.953Z,16.80
2022-08-20T00:28:20.989Z,16.90
2022-08-20T00:30:55.812Z,21.88
2022-08-20T00:33:29.286Z,14.68
2022-08-20T00:36:07.123Z,17.77
2022-08-20T00:38:43.017Z,19.33
2022-08-20T00:41:21.428Z,17.38
2022-08-20T00:44:09.425Z,16.70
2022-08-20T00:46:45.281Z,18.73
2022-08-20T00:49:22.281Z,19.05
2022-08-20T00:52:00.361Z,16.00
2022-08-20T00:54:39.313Z,20.50
2022-08-20T00:57:19.911Z,15.82
2022-08-20T00:59:54.650Z,15.23
2022-08-20T01:02:32.383Z,16.05
2022-08-20T01:05:08.254Z,18.02
2022-08-20T01:07:42.523Z,14.68
2022-08-20T01:10:19.398Z,20.92
2022-08-20T01:12:54.918Z,17.83
2022-08-20T01:15:33.222Z,15.00
2022-08-20T01:18:12.348Z,14.30
2022-08-20T01:20:49.535Z,16.58
2022-08-20T01:23:30.375Z,12.88
2022-08-20T01:26:10.732Z,15.95
2022-08-20T01:28:46.635Z,18.35
2022-08-20T01:31:23.711Z,14.50
2022-08-20T01:33:58.952Z,16.58
2022-08-20T01:36:44.276Z,21.63
2022-08-20T01:39:38.993Z,15.77
2022-08-20T01:42:19.544Z,18.40
2022-08-20T01:44:53.287Z,17.67
2022-08-20T01:47:38.325Z,16.67
2022-08-20T01:50:36.035Z,14.07
2022-08-20T01:53:16.166Z,16.10
2022-08-20T01:55:49.612Z,16.38
2022-08-20T01:58:24.776Z,19.80
2022-08-20T02:00:59.444Z,14.60
2022-08-20T02:03:37.505Z,15.23
2022-08-20T02:06:13.576Z,18.92
2022-08-20T02:08:47.034Z,15.45
2022-08-20T02:11:21.337Z,16.83
2022-08-20T02:13:57.764Z,15.32
2022-08-20T02:16:34.462Z,19.35
2022-08-20T02:19:12.615Z,16.85
2022-08-20T02:21:48.803Z,16.02
2022-08-20T02:24:23.340Z,15.57
2022-08-20T02:26:57.003Z,18.30
2022-08-20T02:29:32.193Z,17.30
2022-08-20T02:32:25.155Z,17.63
2022-08-20T02:35:03.374Z,16.30
2022-08-20T02:37:37.433Z,16.65
2022-08-20T02:40:14.624Z,16.88
2022-08-20T02:42:48.353Z,17.63
2022-08-20T02:45:25.227Z,16.05
2022-08-20T02:47:59.460Z,18.00
2022-08-20T02:50:32.873Z,16.95
2022-08-20T02:53:06.465Z,18.30
2022-08-20T02:55:40.148Z,18.73
2022-08-20T02:58:14.122Z,15.63
2022-08-20T03:00:49.908Z,19.20
2022-08-20T03:03:24.479Z,17.48
2022-08-20T03:05:59.641Z,15.80
2022-08-20T03:08:33.978Z,22.08
2022-08-20T03:11:08.101Z,22.10
2022-08-20T03:13:41.592Z,16.63
2022-08-20T03:16:16.851Z,18.13
2022-08-20T03:18:52.198Z,18.08
2022-08-20T03:21:26.615Z,15.55
2022-08-20T03:24:00.256Z,16.55
2022-08-20T03:26:33.940Z,21.70
2022-08-20T03:29:07.424Z,18.73
2022-08-20T03:31:42.310Z,16.58
2022-08-20T03:34:15.792Z,15.23
2022-08-20T03:36:49.278Z,17.90
2022-08-20T03:39:22.676Z,17.27
2022-08-20T03:41:56.275Z,14.85
2022-08-20T03:44:29.683Z,16.70
2022-08-20T03:47:09.542Z,16.75
2022-08-20T03:49:42.896Z,18.33
2022-08-20T03:52:17.749Z,16.88
2022-08-20T03:54:51.260Z,15.05
2022-08-20T03:57:25.561Z,17.23
2022-08-20T03:59:59.053Z,17.77
2022-08-20T04:02:34.322Z,18.23
2022-08-20T04:05:08.595Z,16.38
2022-08-20T04:07:42.500Z,19.02
2022-08-20T04:10:16.134Z,21.63
2022-08-20T04:12:53.148Z,17.45
2022-08-20T04:15:26.825Z,20.42
2022-08-20T04:18:03.858Z,15.30
2022-08-20T04:20:40.226Z,14.50
2022-08-20T04:23:14.248Z,21.20
2022-08-20T04:25:47.938Z,17.10
2022-08-20T04:28:24.909Z,18.33
2022-08-20T04:31:00.816Z,18.02
2022-08-20T04:33:35.665Z,19.27
2022-08-20T04:36:09.287Z,21.20
2022-08-20T04:38:49.759Z,16.08
2022-08-20T04:41:25.608Z,18.90
2022-08-20T04:43:59.318Z,16.58
2022-08-20T04:46:33.242Z,19.45
2022-08-20T04:49:08.658Z,15.80
2022-08-20T04:51:42.121Z,18.20
2022-08-20T04:54:16.017Z,16.77
2022-08-20T04:56:50.145Z,18.45
2022-08-20T04:59:23.592Z,19.27
2022-08-20T05:01:57.041Z,19.65
2022-08-20T05:04:31.835Z,17.05
2022-08-20T05:07:05.663Z,20.13
2022-08-20T05:09:43.815Z,14.40
2022-08-20T05:12:18.216Z,14.88
2022-08-20T05:14:51.650Z,17.85
2022-08-20T05:17:25.028Z,15.57
2022-08-20T05:20:00.527Z,18.20
2022-08-20T05:23:09.548Z,14.70
2022-08-20T05:25:44.845Z,16.02
2022-08-20T05:28:20.444Z,14.95
2022-08-20T05:30:54.912Z,15.38
2022-08-20T05:33:30.092Z,23.13
2022-08-20T05:36:07.501Z,15.02
2022-08-20T05:38:40.971Z,17.63
2022-08-20T05:41:27.565Z,22.10
2022-08-20T05:44:03.385Z,15.75
2022-08-20T05:46:39.531Z,19.73
2022-08-20T05:49:15.629Z,14.40
2022-08-20T05:51:52.191Z,17.70
2022-08-20T05:54:26.125Z,15.30
2022-08-20T05:56:59.787Z,21.67
2022-08-20T05:59:34.793Z,13.48
2022-08-20T06:02:28.681Z,19.95
2022-08-20T06:05:01.503Z,13.98
2022-08-20T06:07:36.255Z,17.50
2022-08-20T06:10:11.545Z,15.55
2022-08-20T06:12:45.566Z,15.27
2022-08-20T06:15:18.979Z,12.77
2022-08-20T06:17:58.204Z,16.92
2022-08-20T06:20:32.077Z,20.08
2022-08-20T06:23:07.580Z,15.10
2022-08-20T06:25:41.265Z,18.52
2022-08-20T06:28:15.618Z,13.85
2022-08-20T06:30:49.022Z,15.07
2022-08-20T06:33:22.426Z,12.88
2022-08-20T06:35:55.930Z,13.85
2022-08-20T06:38:32.668Z,15.80
2022-08-20T06:41:06.344Z,14.52
2022-08-20T06:43:39.749Z,13.57
2022-08-20T06:46:13.205Z,12.68
2022-08-20T06:48:46.765Z,17.75
2022-08-20T06:51:20.849Z,12.25
2022-08-20T06:53:55.642Z,11.68
2022-08-20T06:56:29.044Z,15.23
2022-08-20T06:59:02.633Z,11.18
2022-08-20T07:01:36.066Z,12.32
2022-08-20T07:04:10.011Z,12.50
2022-08-20T07:06:43.794Z,14.38
2022-08-20T07:09:18.799Z,11.98
2022-08-20T07:11:52.485Z,16.80
2022-08-20T07:14:26.369Z,15.38
2022-08-20T07:16:59.747Z,10.82
2022-08-20T07:19:33.508Z,13.10
2022-08-20T07:22:07.051Z,10.02
2022-08-20T07:24:44.899Z,12.48
2022-08-20T07:27:25.079Z,11.43
2022-08-20T07:30:15.700Z,10.77
2022-08-20T07:32:51.896Z,12.35
2022-08-20T07:35:25.477Z,12.93
2022-08-20T07:37:58.935Z,14.15
2022-08-20T07:40:36.152Z,14.27
2022-08-20T07:43:10.005Z,14.00
2022-08-20T07:45:45.262Z,16.25
2022-08-20T07:48:31.085Z,11.55
2022-08-20T07:51:07.279Z,12.75
2022-08-20T07:53:41.845Z,14.80
2022-08-20T07:56:19.332Z,12.98
2022-08-20T07:58:56.303Z,16.15
2022-08-20T08:01:32.284Z,14.13
2022-08-20T08:04:05.959Z,11.70
2022-08-20T08:06:45.458Z,10.38
2022-08-20T08:09:19.191Z,12.27
2022-08-20T08:11:57.592Z,28.25
2022-08-20T08:14:34.650Z,18.65
2022-08-20T08:17:09.182Z,9.43
2022-08-20T08:19:45.211Z,7.63
2022-08-20T08:22:20.484Z,9.52
2022-08-20T08:24:56.705Z,9.48
2022-08-20T08:27:34.235Z,9.85
2022-08-20T08:30:08.991Z,9.10
2022-08-20T08:33:02.903Z,9.07
2022-08-20T08:35:38.887Z,7.00
2022-08-20T08:38:15.474Z,17.63
2022-08-20T08:40:52.223Z,9.10
2022-08-20T08:43:34.687Z,8.05
2022-08-20T08:46:12.229Z,10.15
2022-08-20T08:48:47.873Z,16.23
2022-08-20T08:51:27.896Z,7.72
2022-08-20T08:54:06.711Z,13.40
2022-08-20T08:56:41.350Z,10.00
2022-08-20T08:59:16.134Z,8.00
2022-08-20T09:01:56.980Z,11.30
2022-08-20T09:04:35.772Z,12.25
2022-08-20T09:07:12.446Z,11.93
2022-08-20T09:09:48.132Z,10.23
2022-08-20T09:12:24.769Z,14.25
2022-08-20T09:15:00.015Z,8.43
2022-08-20T09:17:33.389Z,7.15
2022-08-20T09:20:09.641Z,6.82
2022-08-20T09:22:43.146Z,10.90
2022-08-20T09:25:16.554Z,10.40
2022-08-20T09:27:49.925Z,9.80
2022-08-20T09:30:25.765Z,9.32
2022-08-20T09:33:00.618Z,7.43
2022-08-20T09:35:34.536Z,5.72
2022-08-20T09:38:08.162Z,8.27
2022-08-20T09:40:41.864Z,5.85
2022-08-20T09:43:15.284Z,6.38
2022-08-20T09:45:50.176Z,5.13
2022-08-20T09:48:29.722Z,11.35
2022-08-20T09:51:06.160Z,11.57
2022-08-20T09:53:39.605Z,11.02
2022-08-20T09:56:13.787Z,5.30
2022-08-20T09:58:50.508Z,9.43
2022-08-20T10:01:25.266Z,6.35
2022-08-20T10:03:58.838Z,9.18
2022-08-20T10:06:37.192Z,5.43
2022-08-20T10:09:11.182Z,7.13
2022-08-20T10:11:44.671Z,12.70
2022-08-20T10:14:18.214Z,10.20
2022-08-20T10:16:59.825Z,8.23
2022-08-20T10:19:34.116Z,7.82
2022-08-20T10:22:07.716Z,7.20
2022-08-20T10:24:43.259Z,6.22
2022-08-20T10:27:17.005Z,4.90
2022-08-20T10:29:51.008Z,8.73
2022-08-20T10:32:25.907Z,7.20
2022-08-20T10:34:59.550Z,8.48
2022-08-20T10:37:34.749Z,8.88
2022-08-20T10:40:09.903Z,4.18
2022-08-20T10:42:43.872Z,5.20
2022-08-20T10:45:17.810Z,6.70
2022-08-20T10:47:52.630Z,8.68
2022-08-20T10:50:26.498Z,7.88
2022-08-20T10:53:04.034Z,6.85
2022-08-20T10:55:37.454Z,4.97
2022-08-20T10:58:11.454Z,9.45
2022-08-20T11:00:45.827Z,6.78
2022-08-20T11:03:22.177Z,9.55
2022-08-20T11:05:55.729Z,7.85
2022-08-20T11:08:34.150Z,7.28
2022-08-20T11:11:09.689Z,5.95
2022-08-20T11:13:43.106Z,10.05
2022-08-20T11:16:16.598Z,7.95
2022-08-20T11:18:51.353Z,5.43
2022-08-20T11:21:24.738Z,5.97
2022-08-20T11:24:02.242Z,6.45
2022-08-20T11:26:36.280Z,4.72
2022-08-20T11:29:09.948Z,8.50
2022-08-20T11:31:43.405Z,6.60
2022-08-20T11:34:18.475Z,7.65
2022-08-20T11:36:52.940Z,11.02
2022-08-20T11:39:26.412Z,11.82
2022-08-20T11:41:59.837Z,6.47
2022-08-20T11:44:33.219Z,10.10
2022-08-20T11:47:07.930Z,6.00
2022-08-20T11:49:42.685Z,4.45
2022-08-20T11:52:16.034Z,5.18
2022-08-20T11:54:54.391Z,8.38
2022-08-20T11:57:30.867Z,4.97
2022-08-20T12:00:10.199Z,7.70
2022-08-20T12:02:43.961Z,6.25
2022-08-20T12:05:19.621Z,5.20
2022-08-20T12:07:53.139Z,24.92
2022-08-20T12:10:28.130Z,9.10
2022-08-20T12:13:02.686Z,5.40
2022-08-20T12:15:38.749Z,3.50
2022-08-20T12:18:12.366Z,4.05
2022-08-20T12:20:47.163Z,4.90
2022-08-20T12:23:24.192Z,5.03
2022-08-20T12:25:59.291Z,6.95
2022-08-20T12:28:34.449Z,9.95
2022-08-20T12:31:08.091Z,8.27
2022-08-20T12:33:41.603Z,5.97
2022-08-20T12:36:16.408Z,7.22
2022-08-20T12:38:49.769Z,8.90
2022-08-20T12:41:23.141Z,10.73
2022-08-20T12:43:56.520Z,6.22
2022-08-20T12:46:29.957Z,4.30
2022-08-20T12:49:03.337Z,4.57
2022-08-20T12:51:38.140Z,3.95
2022-08-20T12:54:11.540Z,6.13
2022-08-20T12:56:44.897Z,4.43
2022-08-20T12:59:19.697Z,3.75
2022-08-20T13:01:55.494Z,8.57
2022-08-20T13:04:28.947Z,10.20
2022-08-20T13:07:04.390Z,8.15
2022-08-20T13:09:37.808Z,4.07
2022-08-20T13:12:15.349Z,6.00
2022-08-20T13:14:48.779Z,7.38
2022-08-20T13:17:33.659Z,5.43
2022-08-20T13:20:15.283Z,6.22
2022-08-20T13:22:50.100Z,8.65
2022-08-20T13:25:24.812Z,4.90
2022-08-20T13:28:05.031Z,4.88
2022-08-20T13:30:40.978Z,12.70
2022-08-20T13:33:14.370Z,5.20
2022-08-20T13:35:47.757Z,5.57
2022-08-20T13:38:22.747Z,11.52
2022-08-20T13:40:58.402Z,10.95
2022-08-20T13:43:31.835Z,6.38
2022-08-20T13:46:06.554Z,8.02
2022-08-20T13:48:39.951Z,15.18
2022-08-20T13:51:13.631Z,10.32
2022-08-20T13:53:53.916Z,9.18
2022-08-20T13:56:27.305Z,14.30
2022-08-20T13:59:00.734Z,8.98
2022-08-20T14:01:34.161Z,9.18
2022-08-20T14:04:07.760Z,9.80
2022-08-20T14:06:41.234Z,10.50
2022-08-20T14:09:16.039Z,9.20
2022-08-20T14:11:49.484Z,9.27
2022-08-20T14:14:22.912Z,10.43
2022-08-20T14:16:56.449Z,10.93
2022-08-20T14:19:29.858Z,9.00
2022-08-20T14:22:03.272Z,9.05
2022-08-20T14:24:38.126Z,11.95
2022-08-20T14:27:11.758Z,6.97
2022-08-20T14:29:46.625Z,8.43
2022-08-20T14:32:20.232Z,7.38
2022-08-20T14:34:53.688Z,11.43
2022-08-20T14:37:29.449Z,8.30
2022-08-20T14:40:07.141Z,6.07
2022-08-20T14:42:41.235Z,9.57
2022-08-20T14:45:17.529Z,10.45
2022-08-20T14:47:54.289Z,10.43
2022-08-20T14:50:30.360Z,10.80
2022-08-20T14:53:04.028Z,14.60
2022-08-20T14:55:39.914Z,7.50
2022-08-20T14:58:15.158Z,7.78
2022-08-20T15:00:48.676Z,8.18
2022-08-20T15:03:28.742Z,7.15
2022-08-20T15:06:02.129Z,3.90
2022-08-20T15:08:35.880Z,9.95
2022-08-20T15:11:10.577Z,11.20
2022-08-20T15:13:43.941Z,10.00
2022-08-20T15:16:17.487Z,6.65
2022-08-20T15:18:50.882Z,12.82
2022-08-20T15:21:44.957Z,9.43
2022-08-20T15:24:19.691Z,8.00
2022-08-20T15:26:54.668Z,11.18
2022-08-20T15:29:28.157Z,8.02
2022-08-20T15:32:01.544Z,13.38
2022-08-20T15:34:35.015Z,12.02
2022-08-20T15:37:10.580Z,12.02
2022-08-20T15:39:45.318Z,7.93
2022-08-20T15:42:21.338Z,7.55
2022-08-20T15:44:54.709Z,5.60
2022-08-20T15:47:30.892Z,6.05
2022-08-20T15:50:13.891Z,7.38
2022-08-20T15:52:47.755Z,5.68
2022-08-20T15:55:21.223Z,8.77
2022-08-20T15:58:08.117Z,6.28
2022-08-20T16:00:46.275Z,9.00
2022-08-20T16:03:33.551Z,5.45
2022-08-20T16:06:13.880Z,12.35
2022-08-20T16:09:08.512Z,7.75
2022-08-20T16:11:50.566Z,7.18
2022-08-20T16:14:29.172Z,6.00
2022-08-20T16:17:07.899Z,5.20
2022-08-20T16:19:52.189Z,6.45
2022-08-20T16:22:29.636Z,7.85
2022-08-20T16:25:03.679Z,7.65
2022-08-20T16:27:46.271Z,5.30
2022-08-20T16:33:01.061Z,10.45
2022-08-20T16:35:36.795Z,6.25
2022-08-20T16:38:20.879Z,8.00
2022-08-20T16:40:59.376Z,6.47
2022-08-20T16:43:36.083Z,6.10
2022-08-20T16:46:17.579Z,6.97
2022-08-20T16:49:05.668Z,7.60
2022-08-20T16:51:42.728Z,6.40
2022-08-20T16:54:16.884Z,4.55
2022-08-20T16:57:00.341Z,8.48
2022-08-20T16:59:34.921Z,7.72
2022-08-20T17:02:12.204Z,7.97
2022-08-20T17:04:58.826Z,12.98
2022-08-20T17:07:46.265Z,4.05
2022-08-20T17:10:23.563Z,4.00
2022-08-20T17:12:59.861Z,5.22
2022-08-20T17:15:36.237Z,6.38
2022-08-20T17:18:22.217Z,5.07
2022-08-20T17:21:00.373Z,9.50
2022-08-20T17:23:54.605Z,8.13
2022-08-20T17:26:32.269Z,12.77
2022-08-20T17:29:14.510Z,8.02
2022-08-20T17:31:50.463Z,7.43
2022-08-20T17:34:27.890Z,6.32
2022-08-20T17:37:06.547Z,9.80
2022-08-20T17:39:48.096Z,10.98
2022-08-20T17:42:25.495Z,13.43
2022-08-20T17:45:06.172Z,9.48
2022-08-20T17:47:41.209Z,9.20
2022-08-20T17:50:20.191Z,5.57
2022-08-20T17:52:58.370Z,5.68
2022-08-20T17:55:35.208Z,5.95
2022-08-20T17:58:13.609Z,8.65
2022-08-20T18:00:47.294Z,8.45
2022-08-20T18:03:23.466Z,9.38
2022-08-20T18:06:01.267Z,6.28
2022-08-20T18:08:43.638Z,8.50
2022-08-20T18:11:28.362Z,5.85
2022-08-20T18:14:21.397Z,8.60
2022-08-20T18:17:15.616Z,9.13
2022-08-20T18:20:14.241Z,5.82
2022-08-20T18:22:55.496Z,5.53
2022-08-20T18:25:36.647Z,6.15
2022-08-20T18:28:17.257Z,8.13
2022-08-20T18:30:53.932Z,7.82
2022-08-20T18:33:32.505Z,7.78
2022-08-20T18:36:10.327Z,8.88
2022-08-20T18:38:58.897Z,5.68
2022-08-20T18:41:35.586Z,6.30
2022-08-20T18:44:12.009Z,6.50
2022-08-20T18:46:53.994Z,7.32
2022-08-20T18:49:30.840Z,8.05
2022-08-20T18:52:12.264Z,7.38
2022-08-20T18:54:54.150Z,6.97
2022-08-20T18:57:30.539Z,8.73
2022-08-20T19:00:19.469Z,8.98
2022-08-20T19:02:57.007Z,10.35
2022-08-20T19:05:37.821Z,9.27
2022-08-20T19:08:13.631Z,11.38
2022-08-20T19:10:54.444Z,14.18
2022-08-20T19:14:00.868Z,12.40
2022-08-20T19:16:40.238Z,10.30
2022-08-20T19:19:17.628Z,8.75
2022-08-20T19:21:52.076Z,12.23
2022-08-20T19:24:29.000Z,12.32
2022-08-20T19:27:07.879Z,8.77
2022-08-20T19:29:44.314Z,10.95
2022-08-20T19:32:20.988Z,11.35
2022-08-20T19:34:56.998Z,8.60
2022-08-20T19:37:39.991Z,11.05
2022-08-20T19:40:28.365Z,10.95
2022-08-20T19:43:07.001Z,11.18
2022-08-20T19:45:43.924Z,7.88
2022-08-20T19:48:32.180Z,14.05
2022-08-20T19:51:14.208Z,11.35
2022-08-20T19:53:49.927Z,10.95
2022-08-20T19:56:25.803Z,9.85
2022-08-20T19:59:03.443Z,13.70
2022-08-20T20:01:36.966Z,10.15
2022-08-20T20:04:18.202Z,15.27
2022-08-20T20:06:52.516Z,14.25
2022-08-20T20:09:28.995Z,12.80
2022-08-20T20:12:09.893Z,15.90
2022-08-20T20:14:57.428Z,11.18
2022-08-20T20:17:36.233Z,13.80
2022-08-20T20:20:22.167Z,13.30
2022-08-20T20:23:00.048Z,14.55
2022-08-20T20:25:44.363Z,12.85
2022-08-20T20:28:22.699Z,19.30
2022-08-20T20:31:07.054Z,13.75
2022-08-20T20:33:44.409Z,13.18
2022-08-20T20:36:19.862Z,15.10
2022-08-20T20:39:00.500Z,12.27
2022-08-20T20:41:35.960Z,12.00
2022-08-20T20:44:22.453Z,14.13
2022-08-20T20:47:02.958Z,11.80
2022-08-20T20:49:48.654Z,12.77
2022-08-20T20:52:28.486Z,11.85
2022-08-20T20:55:11.893Z,14.15
2022-08-20T20:57:45.261Z,13.77
2022-08-20T21:00:22.330Z,12.80
2022-08-20T21:02:57.484Z,14.63
2022-08-20T21:05:34.453Z,9.27
2022-08-20T21:08:11.352Z,9.52
2022-08-20T21:10:44.962Z,10.93
2022-08-20T21:13:18.497Z,11.40
2022-08-20T21:15:51.912Z,9.82
2022-08-20T21:18:26.681Z,12.65
2022-08-20T21:21:00.053Z,10.93
2022-08-20T21:23:40.238Z,9.88
2022-08-20T21:26:15.482Z,12.52
2022-08-20T21:28:49.033Z,11.75
2022-08-20T21:31:22.458Z,11.80
2022-08-20T21:33:57.473Z,13.65
2022-08-20T21:36:30.934Z,14.18
2022-08-20T21:39:05.215Z,9.35
2022-08-20T21:41:39.357Z,12.10
2022-08-20T21:44:21.744Z,15.25
2022-08-20T21:46:56.529Z,17.48
2022-08-20T21:49:33.037Z,10.90
2022-08-20T21:52:06.811Z,11.48
2022-08-20T21:54:40.231Z,13.68
2022-08-20T21:57:21.254Z,14.57
2022-08-20T21:59:55.168Z,13.20
2022-08-20T22:02:30.188Z,14.60
2022-08-20T22:05:05.703Z,12.82
2022-08-20T22:07:39.503Z,13.30
2022-08-20T22:10:12.869Z,18.50
2022-08-20T22:12:46.609Z,12.63
2022-08-20T22:15:20.178Z,14.13
2022-08-20T22:17:53.945Z,12.07
2022-08-20T22:20:28.905Z,18.23
2022-08-20T22:23:04.224Z,14.63
2022-08-20T22:25:38.024Z,19.38
2022-08-20T22:28:11.762Z,17.65
2022-08-20T22:30:45.493Z,15.57
2022-08-20T22:33:23.296Z,18.25
2022-08-20T22:35:59.213Z,13.68
2022-08-20T22:38:33.050Z,12.65
2022-08-20T22:41:09.571Z,11.73
2022-08-20T22:43:55.829Z,14.70
2022-08-20T22:46:34.830Z,12.63
2022-08-20T22:49:12.285Z,12.40
2022-08-20T22:51:47.295Z,11.38
2022-08-20T22:54:23.803Z,13.40
2022-08-20T22:56:57.540Z,16.80
2022-08-20T22:59:31.180Z,14.73
2022-08-20T23:02:08.460Z,10.18
2022-08-20T23:04:42.246Z,11.70
2022-08-20T23:07:17.857Z,13.05
2022-08-20T23:09:51.309Z,12.70
2022-08-20T23:12:24.885Z,12.65
2022-08-20T23:14:58.425Z,12.77
2022-08-20T23:17:32.108Z,12.98
2022-08-20T23:20:06.290Z,16.17
2022-08-20T23:22:41.164Z,12.65
2022-08-20T23:25:15.399Z,11.00
2022-08-20T23:27:51.168Z,14.32
2022-08-20T23:30:26.292Z,12.68
2022-08-20T23:33:01.585Z,11.60
2022-08-20T23:35:35.849Z,11.75
2022-08-20T23:38:11.409Z,12.75
2022-08-20T23:40:45.235Z,13.35
2022-08-20T23:43:18.954Z,14.30
2022-08-20T23:45:52.767Z,13.57
2022-08-20T23:48:26.626Z,11.23
2022-08-20T23:51:00.018Z,11.82
2022-08-20T23:53:35.075Z,14.18
2022-08-20T23:56:08.766Z,11.23
2022-08-20T23:58:42.242Z,15.25
